Arthur, Nevada
Current Conditions -  °F | °C
As of 11:35 AM on Thursday 23 Oct 2014 (Local Time) from KENV Reporting Station
Clear Clear  
Wind Chill: 55°   Ceiling: Unl
Heat Index: 55°   Visibility: 10mi
Dew Point: 32°   Wind: 6mph
Humidity: 41%   Direction: 90°E
Pressure: 30.14"   Gusts: NA
Location:  41.0114°N, 114.57°W
Report Text: KENV 231835Z AUTO 09005KT 10SM CLR 13/00 A3014 RMK AO1
Loading
Personal Weather Stations






























Interactive Weather Map New forecast layout! Learn more

10-Day Weather Forecast

Advertisements
Track Severe Weather on mobile